Time;durP1;ratioP1;P1;durP2;ratioP2;P2;SDS_P1;SDS_P2;PMS_P1;PMS_P2;Temp;Humidity;BMP_temperature;BMP_pressure;BME280_temperature;BME280_humidity;BME280_pressure;Samples;Min_cycle;Max_cycle;Signal;HPM_P1;HPM_P2
2022/11/07 00:02:21;;;;;;;38.10;22.60;;;;;;;12.53;100.00;95088.34;5075803;28;20514;-76
2022/11/07 00:04:49;;;;;;;39.97;26.33;;;;;;;12.51;100.00;95093.75;5074953;28;20547;-75
2022/11/07 00:07:16;;;;;;;53.23;24.30;;;;;;;12.62;100.00;95098.06;5075046;28;20487;-75
2022/11/07 00:09:43;;;;;;;32.33;21.20;;;;;;;12.66;100.00;95100.28;5039471;28;20799;-75
2022/11/07 00:12:09;;;;;;;32.50;24.37;;;;;;;12.55;100.00;95099.56;5074954;28;20440;-75
2022/11/07 00:14:36;;;;;;;40.73;22.90;;;;;;;12.41;100.00;95093.72;5074676;28;20440;-75
2022/11/07 00:17:03;;;;;;;32.23;23.20;;;;;;;12.45;100.00;95090.84;5074834;28;20920;-75
2022/11/07 00:19:30;;;;;;;34.63;23.90;;;;;;;12.47;100.00;95096.81;5074836;28;20452;-75
2022/11/07 00:21:58;;;;;;;28.33;22.00;;;;;;;12.47;100.00;95102.06;5074778;28;20455;-76
2022/11/07 00:24:25;;;;;;;37.00;24.63;;;;;;;12.55;100.00;95100.41;5039630;28;20444;-75
2022/11/07 00:26:52;;;;;;;39.50;22.10;;;;;;;12.53;100.00;95099.72;5075027;28;20487;-75
2022/11/07 00:29:20;;;;;;;35.27;25.60;;;;;;;12.56;100.00;95099.44;5075226;28;20451;-75
2022/11/07 00:31:48;;;;;;;31.53;21.50;;;;;;;12.60;100.00;95102.63;5074910;28;20448;-75
2022/11/07 00:34:16;;;;;;;29.60;21.23;;;;;;;12.66;100.00;95105.53;5074556;28;20440;-75
2022/11/07 00:36:43;;;;;;;31.20;22.37;;;;;;;12.76;100.00;95097.66;5074966;28;20929;-76
2022/11/07 00:39:11;;;;;;;36.07;21.20;;;;;;;12.85;100.00;95102.09;5056157;28;20951;-76
2022/11/07 00:41:38;;;;;;;30.33;22.67;;;;;;;12.84;100.00;95100.44;5074777;28;20994;-75
2022/11/07 00:44:05;;;;;;;49.73;29.93;;;;;;;12.70;100.00;95100.81;5074378;28;20444;-75
2022/11/07 00:46:32;;;;;;;46.93;30.17;;;;;;;12.65;100.00;95101.25;5037980;28;20480;-75
2022/11/07 00:48:58;;;;;;;47.57;30.07;;;;;;;12.69;100.00;95096.53;5074498;28;20441;-76
2022/11/07 00:51:27;;;;;;;43.40;28.37;;;;;;;12.68;100.00;95100.13;5074917;28;20517;-75
2022/11/07 00:53:54;;;;;;;40.27;27.83;;;;;;;12.65;100.00;95095.13;5074724;28;20536;-75
2022/11/07 00:56:25;;;;;;;40.20;26.07;;;;;;;12.68;100.00;95094.88;5074550;28;20455;-75
2022/11/07 00:58:55;;;;;;;40.20;24.23;;;;;;;12.53;100.00;95091.00;5074236;28;20449;-75
2022/11/07 01:01:24;;;;;;;35.90;25.03;;;;;;;12.57;100.00;95092.38;5074193;28;20465;-75
2022/11/07 01:06:37;;;;;;;36.43;23.60;;;;;;;12.38;100.00;95099.25;5074140;28;20617;-75
2022/11/07 01:09:04;;;;;;;32.33;22.67;;;;;;;12.49;100.00;95089.59;5074280;28;20858;-75
2022/11/07 01:11:35;;;;;;;32.60;23.40;;;;;;;12.34;100.00;95091.78;5074137;28;20467;-75
2022/11/07 01:14:03;;;;;;;39.20;24.77;;;;;;;12.30;100.00;95093.03;5073784;28;20532;-76
2022/11/07 01:16:33;;;;;;;32.70;22.07;;;;;;;12.17;100.00;95084.56;5073986;28;20468;-75
2022/11/07 01:19:00;;;;;;;34.63;23.57;;;;;;;12.11;100.00;95083.28;5039311;28;20532;-75
2022/11/07 01:21:27;;;;;;;39.70;22.73;;;;;;;11.97;100.00;95084.50;5073863;28;20448;-75
2022/11/07 01:23:53;;;;;;;38.00;23.60;;;;;;;12.03;100.00;95077.88;5073648;28;20455;-75
2022/11/07 01:26:20;;;;;;;33.47;23.07;;;;;;;11.91;100.00;95079.78;5073778;28;20533;-75
2022/11/07 01:28:48;;;;;;;37.70;25.63;;;;;;;11.99;100.00;95069.41;5073584;28;20449;-75
2022/11/07 01:31:17;;;;;;;36.40;25.67;;;;;;;12.08;100.00;95073.03;5054905;28;21000;-76
2022/11/07 01:33:45;;;;;;;38.23;24.30;;;;;;;12.27;100.00;95075.72;5073636;28;20447;-75
2022/11/07 01:36:15;;;;;;;40.43;24.50;;;;;;;12.39;100.00;95076.41;5073772;28;20467;-75
2022/11/07 01:38:44;;;;;;;41.80;24.93;;;;;;;12.13;100.00;95068.19;5073548;28;20947;-75
2022/11/07 01:41:21;;;;;;;31.83;21.90;;;;;;;11.87;100.00;95069.66;5073329;28;20468;-75
2022/11/07 01:43:53;;;;;;;33.47;21.87;;;;;;;11.89;100.00;95065.09;5073525;28;21034;-75
2022/11/07 01:46:22;;;;;;;41.93;23.80;;;;;;;12.12;100.00;95071.78;5073390;28;20488;-75
2022/11/07 01:48:54;;;;;;;33.13;21.07;;;;;;;11.87;100.00;95077.56;5073656;28;20439;-75
2022/11/07 01:51:23;;;;;;;36.60;23.13;;;;;;;12.04;100.00;95061.94;5054537;28;20466;-76
2022/11/07 01:53:53;;;;;;;36.57;24.10;;;;;;;12.18;100.00;95060.75;5073368;28;20479;-75
2022/11/07 01:56:23;;;;;;;34.97;23.33;;;;;;;12.34;100.00;95061.03;5073298;28;20926;-75
2022/11/07 01:58:54;;;;;;;35.03;23.30;;;;;;;12.36;100.00;95072.25;5073124;28;20463;-75
2022/11/07 02:01:21;;;;;;;40.50;26.30;;;;;;;12.35;100.00;95067.13;5073446;28;20446;-75
2022/11/07 02:03:49;;;;;;;31.20;21.00;;;;;;;12.47;100.00;95065.22;5038083;28;20939;-75
2022/11/07 02:06:24;;;;;;;38.07;24.27;;;;;;;12.31;100.00;95052.59;5038469;28;20445;-75
2022/11/07 02:08:52;;;;;;;42.30;24.07;;;;;;;12.21;100.00;95060.47;5072989;28;20442;-75
2022/11/07 02:11:20;;;;;;;42.63;23.90;;;;;;;12.22;100.00;95062.13;5072982;28;21023;-75
2022/11/07 02:13:47;;;;;;;34.57;23.50;;;;;;;12.33;100.00;95075.16;5073019;28;20452;-75
2022/11/07 02:16:16;;;;;;;37.93;25.63;;;;;;;12.46;100.00;95064.38;5037681;28;20454;-75
2022/11/07 02:18:44;;;;;;;31.27;23.80;;;;;;;12.54;100.00;95069.78;5072501;28;20447;-75
2022/11/07 02:21:24;;;;;;;38.13;24.13;;;;;;;12.47;100.00;95073.13;5072991;28;20456;-76
2022/11/07 02:23:57;;;;;;;41.37;26.03;;;;;;;12.46;100.00;95074.09;5072640;28;20479;-75
2022/11/07 02:26:26;;;;;;;46.07;26.33;;;;;;;12.52;100.00;95078.78;5072540;28;20451;-75
2022/11/07 02:28:56;;;;;;;47.73;27.20;;;;;;;12.51;100.00;95075.34;5072550;28;20450;-75
2022/11/07 02:31:23;;;;;;;39.90;26.07;;;;;;;12.53;100.00;95080.47;5037691;28;20444;-76
2022/11/07 02:33:50;;;;;;;40.30;25.83;;;;;;;12.56;100.00;95080.19;5072437;28;21001;-75
2022/11/07 02:36:21;;;;;;;38.20;24.43;;;;;;;12.60;100.00;95078.94;5072497;28;20860;-75
2022/11/07 02:38:56;;;;;;;44.20;27.03;;;;;;;12.56;100.00;95069.66;5072949;28;20934;-75
2022/11/07 02:41:26;;;;;;;39.47;24.80;;;;;;;12.64;100.00;95077.69;5072345;28;20436;-75
2022/11/07 02:43:57;;;;;;;32.87;21.80;;;;;;;12.65;99.48;95076.72;5072465;28;20984;-75
2022/11/07 02:46:25;;;;;;;42.73;25.37;;;;;;;12.65;98.92;95081.97;5072410;28;20479;-75
2022/11/07 02:48:55;;;;;;;36.97;23.17;;;;;;;12.65;98.61;95087.25;5072209;28;20453;-76
2022/11/07 02:51:22;;;;;;;41.50;24.63;;;;;;;12.63;98.28;95079.47;5072383;28;20459;-75
2022/11/07 02:53:49;;;;;;;29.90;22.33;;;;;;;12.64;98.23;95077.69;5072036;28;20472;-75
2022/11/07 02:56:16;;;;;;;35.10;22.97;;;;;;;12.62;96.97;95087.53;5072249;28;20452;-75
2022/11/07 02:58:44;;;;;;;33.93;22.67;;;;;;;12.60;97.04;95087.66;5072111;28;20448;-76
2022/11/07 03:01:11;;;;;;;37.00;21.93;;;;;;;12.57;96.74;95080.03;5072164;28;20448;-75
2022/11/07 03:03:41;;;;;;;35.90;23.37;;;;;;;12.54;96.18;95082.94;5072234;28;20522;-75
2022/11/07 03:06:09;;;;;;;32.17;22.33;;;;;;;12.46;96.22;95087.25;5072056;28;20441;-76
2022/11/07 03:08:35;;;;;;;44.50;22.87;;;;;;;12.40;96.20;95089.44;5036205;28;20495;-75
2022/11/07 03:11:03;;;;;;;33.87;20.97;;;;;;;12.36;96.21;95090.66;5072163;28;20458;-75
2022/11/07 03:13:30;;;;;;;33.63;22.80;;;;;;;12.33;95.57;95092.75;5072200;28;20443;-76
2022/11/07 03:15:58;;;;;;;42.43;22.80;;;;;;;12.27;96.26;95088.88;5072273;28;20448;-75
2022/11/07 03:18:25;;;;;;;33.60;21.50;;;;;;;12.17;95.17;95087.19;5071834;28;20463;-75
2022/11/07 03:20:52;;;;;;;38.53;22.93;;;;;;;12.10;95.57;95085.06;5071806;28;20543;-75
2022/11/07 03:23:19;;;;;;;36.27;22.20;;;;;;;12.07;94.96;95079.25;5071750;28;20499;-75
2022/11/07 03:25:45;;;;;;;42.53;21.77;;;;;;;12.01;95.67;95087.69;5072273;28;20498;-76
2022/11/07 03:28:12;;;;;;;37.00;21.70;;;;;;;11.98;96.26;95091.41;5072128;28;20480;-75
2022/11/07 03:30:39;;;;;;;37.07;22.53;;;;;;;11.99;95.78;95095.72;5072048;28;20444;-75
2022/11/07 03:33:08;;;;;;;32.97;20.43;;;;;;;11.96;95.08;95088.09;5071692;28;20456;-75
2022/11/07 03:35:35;;;;;;;41.83;21.90;;;;;;;11.93;95.74;95087.53;5071564;28;20467;-76
2022/11/07 03:38:02;;;;;;;39.40;21.37;;;;;;;11.90;94.85;95087.81;5071921;28;20965;-76
2022/11/07 03:40:28;;;;;;;30.17;19.67;;;;;;;11.88;95.20;95093.19;5072037;28;20505;-75
2022/11/07 03:42:55;;;;;;;33.80;20.67;;;;;;;11.86;94.23;95102.19;5072101;28;20447;-75
2022/11/07 03:45:22;;;;;;;41.07;20.60;;;;;;;11.82;95.01;95111.28;5071802;28;20523;-75
2022/11/07 03:47:49;;;;;;;42.27;23.93;;;;;;;11.78;94.23;95114.16;5072335;28;20482;-75
2022/11/07 03:50:19;;;;;;;39.77;21.50;;;;;;;11.71;93.33;95117.44;5071681;28;20954;-75
2022/11/07 03:52:46;;;;;;;32.77;21.97;;;;;;;11.59;93.78;95116.69;5071687;28;20471;-75
2022/11/07 03:55:14;;;;;;;43.07;24.50;;;;;;;11.59;95.62;95121.13;5036648;28;20452;-75
2022/11/07 03:57:42;;;;;;;38.93;24.13;;;;;;;11.56;95.49;95126.59;5071545;28;20456;-75
2022/11/07 04:00:10;;;;;;;44.10;25.07;;;;;;;11.55;96.02;95124.94;5071248;28;20509;-74
2022/11/07 04:02:36;;;;;;;46.77;25.73;;;;;;;11.54;96.16;95124.13;5071384;28;20459;-75
2022/11/07 04:05:04;;;;;;;38.47;26.10;;;;;;;11.47;95.04;95134.31;5071596;28;20451;-75
2022/11/07 04:07:32;;;;;;;35.13;26.27;;;;;;;11.43;95.83;95134.72;5071181;28;20587;-75
2022/11/07 04:09:59;;;;;;;33.50;21.33;;;;;;;11.44;96.28;95133.75;5071668;28;20455;-75
2022/11/07 04:17:55;;;;;;;38.60;24.80;;;;;;;11.53;97.59;95151.34;5041477;28;20434;-75
2022/11/07 04:20:21;;;;;;;38.20;24.07;;;;;;;11.53;98.05;95146.09;5073197;28;20443;-75
2022/11/07 04:22:50;;;;;;;41.70;23.20;;;;;;;11.58;97.41;95157.09;5074902;28;20448;-76
2022/11/07 04:25:16;;;;;;;47.00;22.90;;;;;;;11.61;98.93;95154.19;5038077;28;20444;-75
2022/11/07 04:27:42;;;;;;;35.03;21.13;;;;;;;11.68;98.32;95157.97;5068036;28;20896;-75
2022/11/07 04:30:23;;;;;;;38.27;24.20;;;;;;;11.72;99.07;95151.47;5074671;28;20478;-75
2022/11/07 04:32:52;;;;;;;31.77;22.20;;;;;;;11.76;98.56;95154.66;5060678;28;20212;-74
2022/11/07 04:35:19;;;;;;;35.57;22.77;;;;;;;11.79;99.03;95155.28;5074332;28;20492;-75
2022/11/07 04:37:47;;;;;;;31.40;21.70;;;;;;;11.63;97.90;95151.44;5075029;28;21136;-76
2022/11/07 04:40:16;;;;;;;30.40;21.57;;;;;;;11.65;97.35;95152.97;5074438;28;20448;-75
2022/11/07 04:42:44;;;;;;;30.43;20.73;;;;;;;11.65;98.46;95160.03;5074723;28;20843;-75
2022/11/07 04:45:11;;;;;;;33.57;20.83;;;;;;;11.51;99.21;95158.53;5074339;28;20942;-75
2022/11/07 04:47:38;;;;;;;29.57;21.67;;;;;;;11.55;98.24;95154.69;5074659;28;20507;-76
2022/11/07 04:50:08;;;;;;;36.03;21.70;;;;;;;11.60;98.71;95154.31;5074517;28;20448;-75
2022/11/07 04:52:35;;;;;;;37.03;22.30;;;;;;;11.63;98.78;95162.78;5074067;28;20878;-75
2022/11/07 04:55:01;;;;;;;31.50;20.33;;;;;;;11.65;98.48;95152.97;5074097;28;20455;-76
2022/11/07 04:57:30;;;;;;;40.63;22.40;;;;;;;11.71;98.45;95159.50;5074317;28;20464;-75
2022/11/07 04:59:56;;;;;;;46.40;23.77;;;;;;;11.77;98.77;95165.06;5074073;28;20447;-75
2022/11/07 05:02:24;;;;;;;36.53;23.37;;;;;;;11.84;99.15;95157.50;5074187;28;20448;-75
2022/11/07 05:04:51;;;;;;;30.30;22.33;;;;;;;11.93;98.76;95162.00;5074292;28;20531;-76
2022/11/07 05:07:19;;;;;;;36.10;22.47;;;;;;;12.00;98.89;95157.03;5073674;28;20582;-77
2022/11/07 05:09:46;;;;;;;34.20;24.67;;;;;;;12.08;99.15;95159.81;5074106;28;20458;-77
2022/11/07 05:12:13;;;;;;;32.53;21.33;;;;;;;12.15;98.60;95160.16;5074044;28;20478;-78
2022/11/07 05:14:41;;;;;;;47.03;23.97;;;;;;;12.23;98.82;95174.31;5073910;28;20441;-75
2022/11/07 05:17:10;;;;;;;45.33;23.93;;;;;;;12.27;98.22;95173.06;5073753;28;20452;-76
2022/11/07 05:19:37;;;;;;;41.23;22.13;;;;;;;12.29;98.43;95168.50;5074190;28;20502;-76
2022/11/07 05:24:47;;;;;;;42.03;24.43;;;;;;;12.36;98.08;95174.88;5073860;28;20436;-75
2022/11/07 05:27:18;;;;;;;51.43;24.80;;;;;;;12.41;97.98;95174.47;5074077;28;20449;-75
2022/11/07 05:29:46;;;;;;;43.00;22.33;;;;;;;12.43;97.93;95172.53;5074233;28;20445;-75
2022/11/07 05:32:14;;;;;;;39.23;23.47;;;;;;;12.48;98.10;95182.69;5073180;28;20528;-75
2022/11/07 05:34:40;;;;;;;35.27;20.67;;;;;;;12.51;96.95;95183.25;5073999;28;20518;-75
2022/11/07 05:37:08;;;;;;;45.03;22.33;;;;;;;12.52;95.73;95189.34;5067920;28;20935;-74
2022/11/07 05:39:35;;;;;;;33.93;21.57;;;;;;;12.56;95.75;95190.75;5070150;28;20537;-75
2022/11/07 05:42:02;;;;;;;34.93;19.87;;;;;;;12.57;95.48;95189.78;5072901;28;20506;-75
2022/11/07 05:44:29;;;;;;;29.13;20.87;;;;;;;12.58;95.77;95199.34;5072293;28;20456;-75
2022/11/07 05:46:58;;;;;;;36.77;20.60;;;;;;;12.61;95.23;95201.69;5072928;28;20441;-75
2022/11/07 05:49:25;;;;;;;34.10;21.67;;;;;;;12.65;95.69;95205.72;5072888;28;20829;-75
2022/11/07 05:51:54;;;;;;;35.87;24.60;;;;;;;12.64;95.60;95198.78;5073190;28;20520;-75
2022/11/07 05:54:21;;;;;;;37.07;24.53;;;;;;;12.69;95.09;95218.47;5073432;28;20448;-75
2022/11/07 05:56:47;;;;;;;36.80;25.90;;;;;;;12.70;95.26;95220.13;5073038;28;20537;-76
2022/11/07 05:59:14;;;;;;;42.53;23.73;;;;;;;12.73;95.25;95213.78;5072344;28;20498;-76
2022/11/07 06:01:41;;;;;;;34.17;22.20;;;;;;;12.77;95.06;95214.34;5071613;28;20442;-76
2022/11/07 06:04:09;;;;;;;30.40;21.77;;;;;;;12.78;94.88;95216.84;5072784;28;20448;-76
2022/11/07 06:06:36;;;;;;;37.47;23.63;;;;;;;12.83;94.83;95219.91;5072497;28;20465;-76
2022/11/07 06:09:03;;;;;;;37.23;23.10;;;;;;;12.87;94.51;95225.72;5072701;28;20507;-75
2022/11/07 06:11:31;;;;;;;36.50;22.13;;;;;;;12.90;94.32;95231.56;5072524;28;20861;-75
2022/11/07 06:14:01;;;;;;;30.53;23.00;;;;;;;12.92;94.32;95224.34;5072599;28;20449;-77
2022/11/07 06:16:33;;;;;;;39.57;21.37;;;;;;;12.93;94.86;95228.66;5072480;28;20456;-76
2022/11/07 06:19:00;;;;;;;31.03;22.97;;;;;;;12.98;95.35;95239.59;5072899;28;20447;-76
2022/11/07 06:21:28;;;;;;;35.60;22.97;;;;;;;13.03;95.59;95236.59;5037135;28;20448;-76
2022/11/07 06:23:55;;;;;;;31.70;22.83;;;;;;;13.09;95.37;95241.31;5072315;28;20456;-76
2022/11/07 06:26:21;;;;;;;36.60;26.20;;;;;;;13.08;95.14;95244.06;5072064;28;20499;-76
2022/11/07 06:28:48;;;;;;;36.17;22.87;;;;;;;12.95;94.80;95244.31;5064184;28;20476;-75
2022/11/07 06:31:16;;;;;;;37.73;24.13;;;;;;;12.88;95.42;95249.31;5057504;28;20460;-76
2022/11/07 06:33:43;;;;;;;46.13;26.83;;;;;;;12.89;95.99;95248.31;5066202;28;20457;-76
2022/11/07 06:36:12;;;;;;;38.43;26.40;;;;;;;12.92;96.04;95255.97;5055598;28;20453;-76
2022/11/07 06:38:40;;;;;;;42.57;28.73;;;;;;;12.99;96.69;95256.25;5043776;28;20448;-77
2022/11/07 06:41:10;;;;;;;43.00;25.77;;;;;;;12.95;96.01;95255.69;5052384;28;20518;-75
2022/11/07 06:43:37;;;;;;;44.33;25.73;;;;;;;12.87;96.56;95252.91;5051955;28;20441;-77
2022/11/07 06:46:05;;;;;;;50.20;28.60;;;;;;;12.68;98.70;95247.56;5053909;28;20468;-75
2022/11/07 06:48:32;;;;;;;46.67;27.80;;;;;;;12.45;100.00;95254.03;5053321;28;20495;-75
2022/11/07 06:51:00;;;;;;;39.70;27.20;;;;;;;12.49;100.00;95255.44;5064991;28;20464;-76
2022/11/07 06:53:27;;;;;;;53.90;30.73;;;;;;;12.51;100.00;95256.94;5058081;28;20930;-76
2022/11/07 06:55:58;;;;;;;39.30;27.63;;;;;;;12.52;100.00;95257.78;5064688;28;20513;-76
2022/11/07 06:58:25;;;;;;;48.30;28.40;;;;;;;12.62;100.00;95263.91;5055018;28;20441;-76
2022/11/07 07:00:52;;;;;;;34.40;25.77;;;;;;;12.70;100.00;95270.16;5065741;28;20446;-76
2022/11/07 07:03:19;;;;;;;47.73;29.87;;;;;;;12.66;100.00;95266.13;5071596;28;20838;-76
2022/11/07 07:05:45;;;;;;;50.53;30.40;;;;;;;12.77;100.00;95265.22;5035919;28;20449;-76
2022/11/07 07:08:13;;;;;;;48.30;30.70;;;;;;;12.85;100.00;95267.19;5071308;28;21204;-76
2022/11/07 07:10:43;;;;;;;45.07;30.30;;;;;;;12.79;100.00;95263.28;5071683;28;20452;-76
2022/11/07 07:13:11;;;;;;;57.40;28.03;;;;;;;12.82;100.00;95270.91;5071485;28;20932;-76
2022/11/07 07:15:38;;;;;;;51.90;28.77;;;;;;;12.94;100.00;95269.00;5071521;28;20465;-76
2022/11/07 07:18:05;;;;;;;51.00;29.63;;;;;;;13.04;100.00;95275.13;5069603;28;20444;-76
2022/11/07 07:20:32;;;;;;;41.03;26.63;;;;;;;13.06;99.58;95272.38;5071463;28;20445;-75
2022/11/07 07:22:59;;;;;;;46.07;26.47;;;;;;;13.10;99.35;95273.75;5071975;28;20449;-75
2022/11/07 07:25:27;;;;;;;40.40;27.37;;;;;;;13.17;98.82;95275.72;5071849;28;20452;-76
2022/11/07 07:27:54;;;;;;;92.80;56.10;;;;;;;13.25;98.40;95285.59;5071776;28;20449;-76
2022/11/07 07:30:22;;;;;;;71.17;43.17;;;;;;;13.30;98.22;95275.50;5036113;28;20458;-76
2022/11/07 07:32:49;;;;;;;88.30;56.20;;;;;;;13.35;98.03;95280.34;5036315;28;20456;-76
2022/11/07 07:35:16;;;;;;;107.20;57.93;;;;;;;13.43;97.70;95281.31;5071833;28;20463;-75
2022/11/07 07:37:42;;;;;;;84.00;51.20;;;;;;;13.51;97.31;95285.88;5033152;28;20457;-75
2022/11/07 07:40:10;;;;;;;82.57;48.60;;;;;;;13.53;96.29;95290.06;5051699;28;20503;-76
2022/11/07 07:42:41;;;;;;;76.87;44.67;;;;;;;13.59;96.49;95288.69;5052271;28;20945;-77
2022/11/07 07:45:10;;;;;;;71.07;43.93;;;;;;;13.62;96.00;95291.03;5033532;28;20524;-77
2022/11/07 07:47:39;;;;;;;80.17;49.13;;;;;;;13.56;95.40;95283.66;5052033;28;20481;-77
2022/11/07 07:50:06;;;;;;;64.97;39.57;;;;;;;13.59;95.58;95286.06;5052859;28;21011;-76
2022/11/07 07:52:33;;;;;;;57.40;37.90;;;;;;;13.61;95.61;95290.22;5052385;28;20480;-76
2022/11/07 07:55:00;;;;;;;69.40;40.70;;;;;;;13.68;95.96;95287.84;5054190;28;20453;-76
2022/11/07 07:57:27;;;;;;;57.17;33.53;;;;;;;13.59;96.03;95284.25;5056818;28;20505;-77
2022/11/07 07:59:54;;;;;;;59.37;37.83;;;;;;;13.71;95.94;95289.38;5056065;28;20823;-77
2022/11/07 08:02:21;;;;;;;61.33;36.03;;;;;;;13.78;96.23;95290.47;5056002;28;20524;-77
2022/11/07 08:04:49;;;;;;;58.33;34.90;;;;;;;13.84;96.16;95285.47;5054680;28;20963;-76
2022/11/07 08:07:15;;;;;;;73.80;38.50;;;;;;;13.86;96.19;95290.59;5055114;28;20533;-77
2022/11/07 08:09:42;;;;;;;54.97;36.60;;;;;;;13.92;96.17;95287.41;5054794;28;20489;-77
2022/11/07 08:12:09;;;;;;;59.17;32.93;;;;;;;13.86;96.52;95290.59;5062042;28;20481;-76
2022/11/07 08:14:36;;;;;;;64.80;37.80;;;;;;;13.90;96.86;95292.00;5073775;28;20452;-77
2022/11/07 08:17:03;;;;;;;61.47;34.77;;;;;;;13.87;97.11;95289.63;5040599;28;20494;-77
2022/11/07 08:19:29;;;;;;;56.10;33.63;;;;;;;13.69;98.08;95284.25;5075787;28;20821;-75
2022/11/07 08:21:58;;;;;;;51.87;31.63;;;;;;;13.78;98.39;95285.19;5075699;28;20456;-76
2022/11/07 08:24:24;;;;;;;54.67;34.80;;;;;;;13.83;98.92;95286.44;5075293;28;20445;-76
2022/11/07 08:26:51;;;;;;;53.23;33.87;;;;;;;13.95;99.30;95285.34;5075236;28;20441;-76
2022/11/07 08:29:18;;;;;;;58.17;34.60;;;;;;;13.97;99.54;95285.19;5075278;28;20488;-76
2022/11/07 08:31:45;;;;;;;49.70;33.50;;;;;;;13.86;99.34;95287.97;5075455;28;20449;-76
2022/11/07 08:34:11;;;;;;;54.47;32.97;;;;;;;13.77;99.84;95291.44;5075142;28;20445;-76
2022/11/07 08:36:38;;;;;;;54.70;31.77;;;;;;;13.54;100.00;95291.72;5075446;28;20464;-75
2022/11/07 08:39:06;;;;;;;44.53;29.90;;;;;;;13.73;100.00;95296.16;5075216;28;20445;-75
2022/11/07 08:41:33;;;;;;;47.73;30.87;;;;;;;13.87;99.91;95297.53;5075198;28;20444;-76
2022/11/07 08:44:00;;;;;;;44.70;27.73;;;;;;;13.95;99.55;95298.53;5075028;28;20455;-75
2022/11/07 08:46:26;;;;;;;41.03;29.53;;;;;;;14.05;99.25;95295.03;5074824;28;20449;-75
2022/11/07 08:48:53;;;;;;;41.50;27.63;;;;;;;14.15;99.74;95298.47;5074813;28;20483;-76
2022/11/07 08:51:20;;;;;;;48.03;29.40;;;;;;;14.25;98.83;95302.78;5075010;28;20446;-75
2022/11/07 08:53:47;;;;;;;45.53;26.70;;;;;;;14.36;98.82;95298.28;5074848;28;20468;-75
2022/11/07 08:56:15;;;;;;;47.27;30.70;;;;;;;14.43;98.26;95296.78;5074848;28;20450;-75
2022/11/07 08:58:42;;;;;;;45.73;27.90;;;;;;;14.54;98.24;95294.81;5074740;28;20449;-75
2022/11/07 09:01:09;;;;;;;42.30;27.23;;;;;;;14.68;97.90;95295.31;5055834;28;20494;-76
2022/11/07 09:03:37;;;;;;;63.17;28.47;;;;;;;14.77;96.74;95302.38;5074909;28;20520;-75
2022/11/07 09:06:04;;;;;;;51.20;28.13;;;;;;;14.86;97.03;95297.03;5038471;28;20449;-75
2022/11/07 09:08:31;;;;;;;44.83;27.93;;;;;;;14.96;95.66;95298.78;5074539;28;20571;-76
2022/11/07 09:11:01;;;;;;;44.73;25.83;;;;;;;14.94;94.83;95304.22;5074697;28;20527;-75
2022/11/07 09:13:30;;;;;;;44.73;26.10;;;;;;;14.73;94.60;95293.88;5074556;28;20449;-75
2022/11/07 09:15:58;;;;;;;42.13;27.83;;;;;;;14.81;94.93;95298.47;5075143;28;21057;-76
2022/11/07 09:18:25;;;;;;;45.10;26.23;;;;;;;14.94;95.22;95303.41;5073743;28;20986;-75
2022/11/07 09:20:51;;;;;;;41.30;26.53;;;;;;;14.97;94.95;95300.47;5073880;28;20442;-75
2022/11/07 09:23:18;;;;;;;46.30;27.43;;;;;;;14.85;95.32;95298.03;5073599;28;20932;-75
2022/11/07 09:25:46;;;;;;;32.83;23.60;;;;;;;14.96;93.91;95296.16;5073917;28;20445;-75
2022/11/07 09:28:13;;;;;;;36.50;25.67;;;;;;;14.86;93.44;95289.13;5054721;28;20440;-75
2022/11/07 09:30:41;;;;;;;39.03;25.40;;;;;;;14.89;93.78;95293.28;5073704;28;20448;-75
2022/11/07 09:33:08;;;;;;;48.67;23.80;;;;;;;15.03;92.44;95291.94;5073586;28;20449;-75
2022/11/07 09:35:34;;;;;;;40.03;23.03;;;;;;;15.12;91.67;95289.25;5073442;28;20445;-76
2022/11/07 09:38:01;;;;;;;38.77;24.27;;;;;;;14.88;91.38;95284.50;5073703;28;20444;-75
2022/11/07 09:40:39;;;;;;;35.80;21.57;;;;;;;15.05;91.69;95279.44;5073245;28;20502;-76
2022/11/07 09:43:21;;;;;;;35.70;23.40;;;;;;;15.22;91.49;95273.34;5073363;28;20479;-76
2022/11/07 09:45:55;;;;;;;42.53;23.23;;;;;;;15.36;91.16;95278.13;5037998;28;20446;-76
2022/11/07 09:48:25;;;;;;;39.63;23.13;;;;;;;15.44;90.83;95267.63;5054205;28;20439;-76
2022/11/07 09:50:52;;;;;;;43.73;23.13;;;;;;;15.49;89.15;95278.56;5073316;28;20449;-76
2022/11/07 09:53:26;;;;;;;40.77;22.97;;;;;;;15.59;88.13;95270.59;5073059;28;20526;-76
2022/11/07 09:55:57;;;;;;;26.10;18.20;;;;;;;15.65;86.39;95272.66;5073374;28;20849;-76
2022/11/07 09:58:27;;;;;;;24.90;18.87;;;;;;;15.70;85.13;95266.91;5073175;28;20454;-75
2022/11/07 10:01:01;;;;;;;28.33;20.43;;;;;;;15.78;85.45;95269.59;5073101;28;20949;-76
2022/11/07 10:03:28;;;;;;;27.10;19.67;;;;;;;15.87;86.24;95276.63;5072797;28;20434;-76
2022/11/07 10:06:06;;;;;;;32.63;19.00;;;;;;;15.92;86.06;95271.72;5073075;28;20942;-76
2022/11/07 10:08:41;;;;;;;29.83;18.23;;;;;;;15.91;83.60;95275.38;5072975;28;20848;-75
2022/11/07 10:11:14;;;;;;;28.63;18.57;;;;;;;15.94;83.84;95277.69;4989785;28;20939;-76
2022/11/07 10:13:57;;;;;;;24.90;19.23;;;;;;;15.89;84.07;95271.19;5072473;28;20969;-76
2022/11/07 10:16:33;;;;;;;34.60;20.57;;;;;;;15.79;83.93;95265.97;5072964;28;20926;-76
2022/11/07 10:19:15;;;;;;;33.90;23.07;;;;;;;15.90;84.73;95267.53;5072600;28;20445;-76
2022/11/07 10:21:48;;;;;;;27.67;21.00;;;;;;;15.94;84.85;95268.94;5072468;28;20967;-76
2022/11/07 10:24:27;;;;;;;26.30;16.63;;;;;;;16.02;84.72;95261.03;5072516;28;20448;-76
2022/11/07 10:26:57;;;;;;;27.30;17.37;;;;;;;15.96;82.95;95257.19;5038919;28;20448;-76
2022/11/07 10:29:27;;;;;;;23.83;17.30;;;;;;;15.75;82.07;95259.34;5072478;28;20582;-76
2022/11/07 10:32:15;;;;;;;27.00;16.53;;;;;;;15.88;82.96;95259.75;5072358;28;20452;-77
2022/11/07 10:34:46;;;;;;;25.83;16.20;;;;;;;15.76;81.95;95247.75;5072594;28;20549;-76
2022/11/07 10:37:13;;;;;;;23.23;16.77;;;;;;;15.84;82.19;95247.81;5072311;28;20570;-76
2022/11/07 10:39:40;;;;;;;27.63;18.47;;;;;;;15.86;82.20;95245.03;5072386;28;20599;-76
2022/11/07 10:42:13;;;;;;;35.87;18.60;;;;;;;16.10;81.91;95238.09;5036867;28;20448;-76
2022/11/07 10:44:42;;;;;;;28.43;17.33;;;;;;;16.24;81.29;95236.72;5072494;28;20441;-76
2022/11/07 10:47:16;;;;;;;29.10;16.97;;;;;;;16.33;79.09;95234.94;5071942;28;20441;-77
2022/11/07 10:49:54;;;;;;;25.10;16.37;;;;;;;16.25;78.95;95229.59;5071987;28;20573;-76
2022/11/07 10:52:20;;;;;;;21.13;15.80;;;;;;;16.38;78.97;95237.94;5071818;28;20472;-77
2022/11/07 10:54:47;;;;;;;17.70;14.53;;;;;;;16.18;78.11;95223.25;5072196;28;21226;-76
2022/11/07 10:57:17;;;;;;;22.57;16.40;;;;;;;16.35;78.53;95227.66;5071970;28;20506;-76
2022/11/07 10:59:54;;;;;;;29.97;16.20;;;;;;;16.07;78.20;95230.47;5072372;28;20501;-76
2022/11/07 11:02:24;;;;;;;23.57;15.83;;;;;;;16.24;78.87;95222.63;5072194;28;20476;-76
2022/11/07 11:04:54;;;;;;;27.60;17.20;;;;;;;16.24;79.23;95217.34;5071944;28;20496;-76
2022/11/07 11:07:21;;;;;;;23.03;17.53;;;;;;;16.23;79.08;95213.88;5052964;28;20523;-76
2022/11/07 11:09:52;;;;;;;19.43;14.90;;;;;;;16.02;79.20;95210.75;5071918;28;20725;-76
2022/11/07 11:12:24;;;;;;;24.00;15.87;;;;;;;16.00;79.73;95210.91;5052882;28;20448;-76
2022/11/07 11:14:50;;;;;;;22.13;15.57;;;;;;;16.19;78.90;95203.72;5072005;28;20440;-76
2022/11/07 11:17:25;;;;;;;26.40;19.20;;;;;;;16.13;79.73;95199.88;5071891;28;20456;-76
2022/11/07 11:19:53;;;;;;;23.63;15.13;;;;;;;16.13;80.07;95194.59;5071923;28;20453;-76
2022/11/07 11:22:23;;;;;;;27.03;17.70;;;;;;;16.24;79.94;95188.22;5071648;28;20449;-77
2022/11/07 11:24:59;;;;;;;27.73;16.17;;;;;;;16.41;79.56;95187.28;5071979;28;20483;-76
2022/11/07 11:27:31;;;;;;;23.43;16.67;;;;;;;16.50;78.57;95191.66;5071724;28;20452;-76
2022/11/07 11:30:05;;;;;;;23.33;15.70;;;;;;;16.54;78.28;95187.69;5073546;28;20490;-76
2022/11/07 11:32:39;;;;;;;27.93;19.77;;;;;;;16.69;78.66;95174.69;5075731;28;20456;-76